Time;durP1;ratioP1;P1;durP2;ratioP2;P2;SDS_P1;SDS_P2;PMS_P1;PMS_P2;Temp;Humidity;BMP_temperature;BMP_pressure;BME280_temperature;BME280_humidity;BME280_pressure;Samples;Min_cycle;Max_cycle;Signal;HPM_P1;HPM_P2
2024/02/03 00:01:29;;;;;;;31.98;18.70;;;;;;;7.15;81.29;100801.88;5056029;28;20033;-62
2024/02/03 00:03:55;;;;;;;30.67;17.23;;;;;;;7.24;81.27;100804.69;5055604;28;20047;-61
2024/02/03 00:06:20;;;;;;;32.95;17.67;;;;;;;7.31;80.39;100803.28;5055929;28;20047;-61
2024/02/03 00:08:45;;;;;;;29.75;16.40;;;;;;;7.36;79.63;100801.16;5055954;28;20041;-63
2024/02/03 00:11:11;;;;;;;30.58;18.33;;;;;;;7.35;79.79;100803.91;5055594;28;20053;-61
2024/02/03 00:13:37;;;;;;;30.45;16.60;;;;;;;7.32;79.54;100802.34;5055621;28;20036;-61
2024/02/03 00:16:02;;;;;;;27.70;16.42;;;;;;;7.28;80.37;100802.66;5055788;28;20049;-62
2024/02/03 00:18:29;;;;;;;30.75;16.38;;;;;;;7.30;79.83;100801.63;5054319;28;20062;-62
2024/02/03 00:20:55;;;;;;;29.13;16.13;;;;;;;7.26;80.00;100804.56;5055079;28;20028;-62
2024/02/03 00:23:20;;;;;;;24.55;15.15;;;;;;;7.22;80.06;100800.47;5055132;28;20350;-62
2024/02/03 00:25:46;;;;;;;26.95;15.52;;;;;;;7.23;80.44;100800.38;5054969;28;20041;-61
2024/02/03 00:28:11;;;;;;;29.33;17.15;;;;;;;7.19;80.59;100787.53;5055187;28;20731;-61
2024/02/03 00:30:37;;;;;;;29.95;16.52;;;;;;;7.30;80.39;100800.78;5055070;28;20043;-62
2024/02/03 00:33:02;;;;;;;31.67;17.38;;;;;;;7.39;79.26;100792.19;5055297;28;20045;-63
2024/02/03 00:35:28;;;;;;;29.90;17.10;;;;;;;7.45;79.57;100802.25;5056122;28;20110;-62
2024/02/03 00:37:53;;;;;;;29.40;16.92;;;;;;;7.49;79.16;100797.59;5054995;28;20037;-61
2024/02/03 00:40:19;;;;;;;32.50;17.00;;;;;;;7.50;78.52;100792.19;5057601;28;20041;-61
2024/02/03 00:42:44;;;;;;;27.33;15.43;;;;;;;7.48;78.92;100793.28;5057424;28;20333;-61
2024/02/03 00:45:10;;;;;;;29.75;17.98;;;;;;;7.51;78.54;100800.94;5057687;28;20040;-62
2024/02/03 00:47:35;;;;;;;30.02;17.13;;;;;;;7.51;78.23;100796.50;5056706;28;20040;-62
2024/02/03 00:50:00;;;;;;;32.22;16.73;;;;;;;7.51;78.35;100798.31;5056532;28;20052;-60
2024/02/03 00:52:26;;;;;;;31.80;18.27;;;;;;;7.52;78.50;100795.56;5057143;28;20041;-60
2024/02/03 00:54:52;;;;;;;35.05;18.60;;;;;;;7.52;78.31;100797.34;5057395;28;20052;-61
2024/02/03 00:57:18;;;;;;;27.02;18.63;;;;;;;7.42;78.19;100791.94;5056310;28;20369;-62
2024/02/03 00:59:45;;;;;;;33.83;17.77;;;;;;;7.35;78.01;100781.03;5056978;28;20045;-63
2024/02/03 01:02:10;;;;;;;30.40;16.90;;;;;;;7.30;78.49;100791.06;5056889;28;20335;-61
2024/02/03 01:04:36;;;;;;;26.98;16.10;;;;;;;7.25;78.72;100794.97;5056443;28;20052;-62
2024/02/03 01:07:02;;;;;;;28.75;15.95;;;;;;;7.12;79.07;100788.94;5056521;28;20048;-61
2024/02/03 01:09:28;;;;;;;28.13;16.40;;;;;;;6.98;80.03;100785.56;5056197;28;20096;-63
2024/02/03 01:11:54;;;;;;;24.27;14.30;;;;;;;6.87;80.97;100792.56;5054663;28;20033;-62
2024/02/03 01:14:20;;;;;;;26.48;15.23;;;;;;;6.71;81.48;100785.78;5056963;28;20040;-62
2024/02/03 01:16:46;;;;;;;36.72;22.27;;;;;;;6.69;81.88;100787.69;5055780;28;20036;-61
2024/02/03 01:19:12;;;;;;;38.22;21.33;;;;;;;6.64;81.83;100786.34;5056179;28;20041;-62
2024/02/03 01:21:37;;;;;;;27.50;16.52;;;;;;;6.55;82.71;100779.97;5056347;28;20029;-62
2024/02/03 01:24:03;;;;;;;28.52;16.00;;;;;;;6.58;82.09;100785.00;5056849;28;20067;-62
2024/02/03 01:26:28;;;;;;;27.00;15.35;;;;;;;6.51;82.28;100782.94;5056924;28;20270;-62
2024/02/03 01:28:54;;;;;;;32.65;17.55;;;;;;;6.42;83.50;100780.94;5061775;28;20032;-63
2024/02/03 01:31:19;;;;;;;40.35;23.40;;;;;;;6.43;83.68;100786.09;5060684;28;20045;-60
2024/02/03 01:33:45;;;;;;;47.97;28.98;;;;;;;6.26;84.08;100770.69;5061635;28;20086;-61
2024/02/03 01:36:10;;;;;;;48.35;28.63;;;;;;;6.28;84.60;100781.94;5061455;28;20364;-62
2024/02/03 01:38:36;;;;;;;53.08;30.25;;;;;;;6.28;84.11;100781.94;5061436;28;20341;-62
2024/02/03 01:41:01;;;;;;;52.67;30.25;;;;;;;6.26;83.85;100775.94;5060571;28;20033;-63
2024/02/03 01:43:27;;;;;;;45.13;27.20;;;;;;;6.38;82.85;100778.53;5061235;28;20052;-61
2024/02/03 01:45:53;;;;;;;42.40;25.83;;;;;;;6.44;82.60;100772.00;5061227;28;20234;-61
2024/02/03 01:48:19;;;;;;;40.33;21.75;;;;;;;6.11;84.53;100766.50;5060478;28;20287;-62
2024/02/03 01:50:52;;;;;;;32.45;18.42;;;;;;;5.93;85.50;100774.72;5060532;28;20242;-63
2024/02/03 01:53:18;;;;;;;35.95;19.40;;;;;;;6.00;85.79;100772.50;5053383;28;20047;-63
2024/02/03 01:55:45;;;;;;;33.78;19.25;;;;;;;5.96;86.14;100769.25;5060158;28;20113;-61
2024/02/03 01:58:11;;;;;;;54.15;34.15;;;;;;;6.01;85.46;100766.28;5061049;28;20033;-61
2024/02/03 02:00:36;;;;;;;71.28;38.20;;;;;;;5.97;85.63;100762.19;5060388;28;20037;-61
2024/02/03 02:03:02;;;;;;;76.15;38.50;;;;;;;6.05;85.07;100762.50;5059695;28;20033;-61
2024/02/03 02:05:28;;;;;;;80.75;41.28;;;;;;;6.05;84.22;100758.09;5059488;28;20055;-60
2024/02/03 02:07:54;;;;;;;68.95;37.22;;;;;;;6.12;83.85;100755.84;5060085;28;20048;-62
2024/02/03 02:10:19;;;;;;;56.67;29.38;;;;;;;6.06;84.49;100754.50;5059321;28;20057;-61
2024/02/03 02:12:47;;;;;;;43.67;26.25;;;;;;;6.14;84.00;100753.97;5059787;28;20458;-61
2024/02/03 02:15:13;;;;;;;49.83;28.92;;;;;;;6.18;83.66;100744.06;5059381;28;20067;-61
2024/02/03 02:17:39;;;;;;;43.75;25.50;;;;;;;6.12;82.65;100744.50;5059836;28;20237;-62
2024/02/03 02:20:08;;;;;;;41.88;23.08;;;;;;;6.18;82.47;100751.94;5059578;28;20029;-62
2024/02/03 02:22:34;;;;;;;35.50;21.88;;;;;;;5.99;83.02;100749.78;5059758;28;20114;-62
2024/02/03 02:25:00;;;;;;;35.78;20.58;;;;;;;6.03;83.05;100753.88;5059704;28;20041;-61
2024/02/03 02:27:26;;;;;;;28.90;16.38;;;;;;;5.78;83.98;100760.00;5059946;28;20055;-63
2024/02/03 02:29:51;;;;;;;26.23;15.73;;;;;;;5.89;82.70;100762.75;5059689;28;20036;-62
2024/02/03 02:32:17;;;;;;;24.65;13.98;;;;;;;5.95;82.92;100754.44;5059960;28;20074;-62
2024/02/03 02:34:42;;;;;;;23.45;14.02;;;;;;;6.00;82.12;100756.72;5059966;28;20037;-62
2024/02/03 02:37:08;;;;;;;27.00;16.42;;;;;;;5.76;82.54;100759.25;5060093;28;20032;-62
2024/02/03 02:39:34;;;;;;;32.67;16.75;;;;;;;5.86;82.03;100769.97;5058538;28;20037;-62
2024/02/03 02:41:59;;;;;;;30.25;16.67;;;;;;;5.83;81.79;100764.94;5059602;28;20029;-62
2024/02/03 02:44:24;;;;;;;27.13;15.65;;;;;;;5.78;82.25;100768.72;5058950;28;20224;-61
2024/02/03 02:46:50;;;;;;;28.15;15.32;;;;;;;5.76;82.12;100765.34;5058618;28;20366;-61
2024/02/03 02:49:15;;;;;;;25.65;14.98;;;;;;;5.73;82.67;100765.56;5058840;28;20083;-61
2024/02/03 02:51:41;;;;;;;30.67;17.48;;;;;;;5.74;81.78;100769.03;5051031;28;20033;-62
2024/02/03 02:54:06;;;;;;;29.85;16.40;;;;;;;5.71;81.91;100771.88;5058413;28;20044;-63
2024/02/03 02:56:32;;;;;;;32.72;17.58;;;;;;;5.63;81.85;100771.56;5058848;28;20209;-61
2024/02/03 02:58:57;;;;;;;31.65;18.15;;;;;;;5.52;82.45;100774.91;5059739;28;20040;-61
2024/02/03 03:01:22;;;;;;;35.75;17.80;;;;;;;5.47;83.22;100761.25;5059320;28;20041;-62
2024/02/03 03:03:52;;;;;;;35.90;18.35;;;;;;;5.41;82.98;100759.91;5058781;28;20044;-63
2024/02/03 03:06:18;;;;;;;37.53;19.17;;;;;;;5.36;83.88;100766.41;5059273;28;20249;-62
2024/02/03 03:08:44;;;;;;;39.63;19.58;;;;;;;5.41;84.76;100762.53;5058765;28;20039;-61
2024/02/03 03:11:12;;;;;;;33.13;17.67;;;;;;;5.47;83.61;100769.16;5057293;28;20107;-61
2024/02/03 03:13:40;;;;;;;31.30;18.30;;;;;;;5.48;82.48;100770.81;5049325;28;20029;-62
2024/02/03 03:16:09;;;;;;;28.63;15.85;;;;;;;5.42;81.79;100769.47;5058174;28;20037;-63
2024/02/03 03:18:37;;;;;;;29.20;15.77;;;;;;;5.42;81.04;100771.25;5059527;28;20230;-61
2024/02/03 03:21:02;;;;;;;24.88;13.65;;;;;;;5.42;80.56;100758.94;5058715;28;20099;-61
2024/02/03 03:23:28;;;;;;;28.95;15.35;;;;;;;5.44;79.42;100753.59;5058896;28;20033;-61
2024/02/03 03:25:55;;;;;;;23.08;12.85;;;;;;;5.50;78.67;100754.97;5058489;28;20048;-63
2024/02/03 03:28:21;;;;;;;23.65;12.90;;;;;;;5.44;78.20;100750.97;5058493;28;20068;-63
2024/02/03 03:30:46;;;;;;;19.42;11.85;;;;;;;5.53;77.10;100754.75;5058425;28;20041;-61
2024/02/03 03:33:11;;;;;;;19.00;11.23;;;;;;;5.61;76.32;100744.56;5059045;28;20037;-61
2024/02/03 03:35:37;;;;;;;22.17;12.10;;;;;;;5.60;75.62;100732.34;5058391;28;20339;-62
2024/02/03 03:38:04;;;;;;;18.85;10.85;;;;;;;5.69;75.02;100742.22;5058309;28;20306;-61
2024/02/03 03:40:29;;;;;;;19.80;12.48;;;;;;;5.72;74.60;100740.22;5057920;28;20043;-62
2024/02/03 03:42:55;;;;;;;27.88;13.98;;;;;;;5.84;73.94;100742.94;5058735;28;20057;-63
2024/02/03 03:45:20;;;;;;;21.52;12.27;;;;;;;5.77;72.96;100732.03;5058284;28;20090;-61
2024/02/03 03:47:46;;;;;;;23.13;13.38;;;;;;;5.84;72.97;100743.78;5058572;28;20037;-62
2024/02/03 03:50:11;;;;;;;22.15;12.55;;;;;;;5.81;72.18;100732.66;5058127;28;20037;-61
2024/02/03 03:52:37;;;;;;;23.90;13.23;;;;;;;5.81;71.95;100738.75;5058427;28;20095;-62
2024/02/03 03:55:02;;;;;;;22.42;13.20;;;;;;;5.67;71.22;100744.13;5058278;28;20029;-63
2024/02/03 03:57:28;;;;;;;23.02;14.50;;;;;;;5.64;71.61;100725.94;5057711;28;20045;-61
2024/02/03 03:59:53;;;;;;;24.45;14.55;;;;;;;5.63;71.14;100733.00;5058011;28;20048;-61
2024/02/03 04:02:19;;;;;;;25.48;14.02;;;;;;;5.60;70.87;100720.06;5058297;28;20361;-62
2024/02/03 04:04:44;;;;;;;21.30;12.68;;;;;;;5.55;70.39;100723.97;5058216;28;20036;-63
2024/02/03 04:07:10;;;;;;;16.98;10.15;;;;;;;5.49;70.57;100719.97;5058029;28;20355;-62
2024/02/03 04:09:35;;;;;;;14.43;9.38;;;;;;;5.42;71.12;100724.81;5057996;28;20048;-61
2024/02/03 04:12:01;;;;;;;14.80;10.65;;;;;;;5.42;70.23;100716.94;5057745;28;20067;-61
2024/02/03 04:14:26;;;;;;;13.88;9.23;;;;;;;5.48;69.85;100712.19;5058112;28;20041;-61
2024/02/03 04:16:52;;;;;;;15.05;10.65;;;;;;;5.54;69.61;100717.03;5053709;28;20047;-63
2024/02/03 04:19:17;;;;;;;20.10;10.20;;;;;;;5.58;69.38;100707.97;5057814;28;20037;-61
2024/02/03 04:21:43;;;;;;;16.42;9.60;;;;;;;5.64;69.10;100705.78;5057472;28;20052;-62
2024/02/03 04:24:08;;;;;;;19.13;11.13;;;;;;;5.58;68.79;100706.19;5057917;28;20045;-61
2024/02/03 04:26:34;;;;;;;16.92;10.02;;;;;;;5.60;68.75;100706.09;5057390;28;20044;-61
2024/02/03 04:28:59;;;;;;;17.08;10.30;;;;;;;5.59;68.96;100696.53;5057162;28;20029;-62
2024/02/03 04:31:24;;;;;;;18.15;10.32;;;;;;;5.62;68.63;100691.06;5056860;28;20327;-61
2024/02/03 04:33:50;;;;;;;14.70;9.95;;;;;;;5.64;67.95;100700.50;5057589;28;20066;-63
2024/02/03 04:36:17;;;;;;;17.20;10.60;;;;;;;5.66;67.47;100698.63;5056521;28;20456;-63
2024/02/03 04:38:43;;;;;;;15.70;9.55;;;;;;;5.72;67.76;100705.22;5056730;28;20029;-61
2024/02/03 04:41:08;;;;;;;28.80;11.00;;;;;;;5.74;67.38;100705.97;5055527;28;20056;-62
2024/02/03 04:43:34;;;;;;;23.05;11.38;;;;;;;5.75;66.92;100707.66;5056187;28;20041;-61
2024/02/03 04:46:00;;;;;;;19.02;9.95;;;;;;;5.74;67.07;100701.53;5054654;28;20079;-62
2024/02/03 04:48:26;;;;;;;17.45;10.25;;;;;;;5.75;66.36;100711.09;5055623;28;20260;-63
2024/02/03 04:50:51;;;;;;;16.60;10.40;;;;;;;5.69;67.05;100708.06;5056076;28;20052;-62
2024/02/03 04:53:17;;;;;;;37.97;20.33;;;;;;;5.71;66.64;100717.53;5056548;28;20033;-61
2024/02/03 04:55:42;;;;;;;28.92;16.48;;;;;;;5.72;66.58;100713.94;5057055;28;20037;-61
2024/02/03 04:58:07;;;;;;;20.52;11.68;;;;;;;5.65;66.31;100701.34;5055514;28;20071;-63
2024/02/03 05:00:33;;;;;;;18.13;10.68;;;;;;;5.51;66.32;100710.19;5056254;28;20037;-62
2024/02/03 05:02:58;;;;;;;17.23;9.10;;;;;;;5.20;67.21;100715.84;5057374;28;20053;-61
2024/02/03 05:05:24;;;;;;;16.33;9.30;;;;;;;5.18;67.75;100721.19;5060220;28;20055;-61
2024/02/03 05:07:50;;;;;;;30.08;18.35;;;;;;;5.07;67.59;100721.06;5058702;28;20041;-61
2024/02/03 05:10:17;;;;;;;30.30;18.42;;;;;;;5.09;67.77;100714.78;5061034;28;20043;-62
2024/02/03 05:12:42;;;;;;;23.25;16.58;;;;;;;5.14;67.14;100715.31;5057250;28;20240;-62
2024/02/03 05:15:08;;;;;;;22.42;15.75;;;;;;;4.99;67.02;100679.59;5059897;28;20717;-60
2024/02/03 05:17:33;;;;;;;25.25;14.80;;;;;;;5.21;66.99;100707.03;5058147;28;20035;-61
2024/02/03 05:19:59;;;;;;;23.92;14.52;;;;;;;5.13;66.81;100703.13;5060358;28;20090;-61
2024/02/03 05:22:24;;;;;;;19.42;11.38;;;;;;;5.18;66.94;100704.59;5059645;28;20045;-62
2024/02/03 05:24:50;;;;;;;23.80;12.82;;;;;;;5.19;66.72;100690.53;5059770;28;20047;-63
2024/02/03 05:27:15;;;;;;;19.90;13.13;;;;;;;5.13;66.86;100691.78;5059464;28;20033;-61
2024/02/03 05:29:41;;;;;;;20.45;11.55;;;;;;;5.14;66.72;100691.69;5059861;28;20040;-61
2024/02/03 05:32:06;;;;;;;22.52;12.95;;;;;;;5.17;66.78;100695.03;5059407;28;20065;-61
2024/02/03 05:34:32;;;;;;;17.55;11.95;;;;;;;5.13;67.10;100681.28;5059417;28;20047;-63
2024/02/03 05:36:57;;;;;;;15.95;10.25;;;;;;;5.11;67.59;100691.03;5059861;28;20080;-62
2024/02/03 05:39:23;;;;;;;13.57;8.93;;;;;;;5.15;67.86;100689.91;5058891;28;20082;-61
2024/02/03 05:41:48;;;;;;;13.43;8.00;;;;;;;5.18;67.84;100681.81;5060230;28;20033;-61
2024/02/03 05:44:13;;;;;;;15.93;10.13;;;;;;;5.22;67.44;100687.72;5057858;28;20342;-62
2024/02/03 05:46:39;;;;;;;19.20;11.30;;;;;;;5.30;67.79;100680.16;5059403;28;20055;-63
2024/02/03 05:49:04;;;;;;;25.00;13.70;;;;;;;5.39;67.21;100680.38;5058410;28;20039;-61
2024/02/03 05:51:30;;;;;;;23.33;15.27;;;;;;;5.30;67.17;100688.88;5059947;28;20037;-62
2024/02/03 05:53:57;;;;;;;15.73;10.52;;;;;;;5.23;67.61;100685.00;5058375;28;20033;-62
2024/02/03 05:56:22;;;;;;;16.90;11.23;;;;;;;5.22;67.00;100692.97;5059149;28;20045;-62
2024/02/03 05:58:48;;;;;;;43.47;21.00;;;;;;;5.26;67.42;100700.53;5058592;28;20037;-63
2024/02/03 06:01:18;;;;;;;45.15;23.83;;;;;;;5.06;68.13;100695.78;5059229;28;20033;-62
2024/02/03 06:03:43;;;;;;;17.35;11.00;;;;;;;4.93;68.33;100700.16;5058139;28;20040;-62
2024/02/03 06:06:09;;;;;;;31.05;17.65;;;;;;;4.90;68.51;100695.13;5058483;28;20071;-61
2024/02/03 06:08:34;;;;;;;35.75;19.20;;;;;;;5.09;67.51;100685.91;5057550;28;20040;-61
2024/02/03 06:11:00;;;;;;;42.83;25.27;;;;;;;5.16;66.95;100693.34;5058887;28;20403;-61
2024/02/03 06:13:25;;;;;;;40.13;20.98;;;;;;;5.16;67.09;100701.25;5058843;28;20033;-62
2024/02/03 06:15:52;;;;;;;30.33;17.95;;;;;;;5.32;66.21;100694.88;5058568;28;20329;-63
2024/02/03 06:18:18;;;;;;;31.67;17.50;;;;;;;5.35;66.91;100705.16;5060093;28;20214;-62
2024/02/03 06:20:44;;;;;;;39.75;20.67;;;;;;;5.30;67.32;100685.41;5057561;28;20036;-61
2024/02/03 06:23:09;;;;;;;32.45;18.25;;;;;;;5.34;68.85;100684.25;5059731;28;20227;-61
2024/02/03 06:25:35;;;;;;;30.98;15.52;;;;;;;5.45;67.95;100690.44;5058344;28;20463;-62
2024/02/03 06:28:00;;;;;;;20.33;13.15;;;;;;;5.55;67.55;100695.91;5059473;28;20243;-63
2024/02/03 06:30:27;;;;;;;25.38;15.27;;;;;;;5.58;66.65;100700.94;5057946;28;20036;-62
2024/02/03 06:32:52;;;;;;;26.63;16.55;;;;;;;5.62;66.89;100712.06;5059189;28;20033;-61
2024/02/03 06:35:18;;;;;;;29.42;16.80;;;;;;;5.70;67.32;100715.84;5057425;28;20047;-61
2024/02/03 06:37:43;;;;;;;30.90;18.48;;;;;;;5.68;67.96;100722.16;5058517;28;20136;-61
2024/02/03 06:40:09;;;;;;;28.63;17.80;;;;;;;5.73;68.73;100714.78;5058266;28;20037;-61
2024/02/03 06:42:35;;;;;;;33.22;20.33;;;;;;;5.83;68.62;100712.34;5057694;28;20208;-61
2024/02/03 06:45:00;;;;;;;26.90;18.48;;;;;;;5.83;68.42;100712.34;5057671;28;20041;-63
2024/02/03 06:47:25;;;;;;;33.75;21.40;;;;;;;5.92;68.87;100707.31;5058149;28;20037;-62
2024/02/03 06:49:51;;;;;;;35.50;23.75;;;;;;;5.99;68.77;100715.63;5059274;28;20036;-61
2024/02/03 06:52:16;;;;;;;26.52;17.98;;;;;;;5.99;68.81;100711.19;5056970;28;20283;-62
2024/02/03 06:54:42;;;;;;;26.77;16.85;;;;;;;6.03;69.14;100701.31;5059164;28;20100;-62
2024/02/03 06:57:07;;;;;;;28.55;15.23;;;;;;;6.19;69.39;100695.78;5056011;28;20037;-62
2024/02/03 06:59:32;;;;;;;30.35;15.43;;;;;;;6.26;68.69;100695.25;5058445;28;20235;-62
2024/02/03 07:01:58;;;;;;;29.35;16.48;;;;;;;6.32;68.82;100691.34;5055821;28;20040;-62
2024/02/03 07:04:23;;;;;;;26.63;15.52;;;;;;;6.45;67.82;100700.00;5057801;28;20098;-62
2024/02/03 07:06:49;;;;;;;33.10;16.20;;;;;;;6.63;67.68;100700.44;5057273;28;20047;-60
2024/02/03 07:09:14;;;;;;;31.33;15.68;;;;;;;6.80;67.17;100700.03;5057895;28;20033;-61
2024/02/03 07:11:40;;;;;;;31.52;16.75;;;;;;;6.91;67.40;100693.97;5056820;28;20036;-62
2024/02/03 07:14:05;;;;;;;31.45;15.98;;;;;;;7.09;65.95;100704.91;5057735;28;20082;-62
2024/02/03 07:16:30;;;;;;;46.35;20.70;;;;;;;7.04;65.22;100700.81;5058144;28;20036;-62
2024/02/03 07:18:57;;;;;;;36.47;19.33;;;;;;;7.26;64.81;100710.56;5057927;28;20040;-61
2024/02/03 07:21:22;;;;;;;39.55;17.58;;;;;;;7.35;64.26;100701.16;5058225;28;20037;-60
2024/02/03 07:23:49;;;;;;;31.23;15.27;;;;;;;7.53;64.18;100702.34;5057468;28;20200;-61
2024/02/03 07:26:15;;;;;;;17.02;11.27;;;;;;;7.67;61.68;100693.38;5057528;28;20048;-63
2024/02/03 07:28:41;;;;;;;15.35;9.50;;;;;;;7.73;61.31;100689.41;5056359;28;20111;-63
2024/02/03 07:31:06;;;;;;;13.27;8.07;;;;;;;7.76;60.04;100679.47;5058547;28;20411;-62
2024/02/03 07:33:32;;;;;;;14.88;9.35;;;;;;;7.85;59.93;100689.28;5055605;28;20351;-61
2024/02/03 07:35:57;;;;;;;18.40;9.43;;;;;;;7.96;59.98;100684.00;5057582;28;20064;-61
2024/02/03 07:38:25;;;;;;;23.80;12.25;;;;;;;7.96;60.76;100684.00;5057434;28;20045;-61
2024/02/03 07:40:51;;;;;;;23.20;12.02;;;;;;;8.05;60.27;100687.69;5058047;28;20104;-61
2024/02/03 07:43:16;;;;;;;20.13;11.13;;;;;;;8.26;59.33;100680.69;5058324;28;20040;-62
2024/02/03 07:45:45;;;;;;;21.75;10.60;;;;;;;8.19;59.03;100679.50;5059114;28;20039;-61
2024/02/03 07:48:11;;;;;;;18.67;8.43;;;;;;;8.32;58.20;100677.59;5051662;28;20037;-62
2024/02/03 07:50:36;;;;;;;18.42;9.68;;;;;;;8.42;58.45;100677.72;5057771;28;20055;-63
2024/02/03 07:53:02;;;;;;;16.27;9.95;;;;;;;8.61;57.55;100677.03;5054230;28;20554;-63
2024/02/03 07:55:28;;;;;;;16.25;11.07;;;;;;;8.25;57.18;100671.09;5057284;28;20040;-62
2024/02/03 07:57:53;;;;;;;13.50;7.00;;;;;;;8.36;56.89;100672.09;5056305;28;20036;-61
2024/02/03 08:00:19;;;;;;;11.27;8.02;;;;;;;8.60;56.80;100670.06;5050957;28;20044;-63
2024/02/03 08:02:44;;;;;;;12.60;7.20;;;;;;;8.62;56.20;100668.97;5058376;28;20056;-63
2024/02/03 08:05:10;;;;;;;10.40;6.15;;;;;;;8.48;54.40;100663.16;5051031;28;20335;-61
2024/02/03 08:07:36;;;;;;;11.48;5.40;;;;;;;8.55;54.58;100666.97;5058801;28;20033;-61
2024/02/03 08:10:02;;;;;;;8.98;4.80;;;;;;;8.55;53.68;100670.44;5056167;28;20032;-62
2024/02/03 08:12:27;;;;;;;8.38;5.28;;;;;;;8.51;53.15;100660.28;5057706;28;20029;-62
2024/02/03 08:14:53;;;;;;;11.88;6.03;;;;;;;8.62;53.43;100660.22;5048911;28;20060;-61
2024/02/03 08:17:18;;;;;;;9.25;5.07;;;;;;;8.55;52.90;100659.06;5057517;28;20037;-61
2024/02/03 08:19:43;;;;;;;8.23;5.60;;;;;;;8.72;52.94;100661.13;5057827;28;20045;-61
2024/02/03 08:22:09;;;;;;;11.77;5.95;;;;;;;8.87;53.41;100664.28;5057582;28;20047;-61
2024/02/03 08:24:34;;;;;;;9.07;5.15;;;;;;;8.77;51.61;100658.09;5051177;28;20327;-61
2024/02/03 08:27:00;;;;;;;4.70;4.05;;;;;;;8.88;51.49;100661.53;5054298;28;20037;-61
2024/02/03 08:29:25;;;;;;;6.35;4.07;;;;;;;8.90;50.95;100650.84;5053688;28;20087;-62
2024/02/03 08:31:50;;;;;;;6.50;4.45;;;;;;;8.97;51.00;100652.00;5056034;28;20025;-62
2024/02/03 08:34:16;;;;;;;7.85;3.60;;;;;;;8.95;49.93;100656.56;5057085;28;20319;-62
2024/02/03 08:36:41;;;;;;;7.72;4.10;;;;;;;8.94;50.61;100657.53;5075719;28;20050;-62
2024/02/03 08:39:07;;;;;;;14.27;4.53;;;;;;;9.10;49.71;100643.84;5077758;28;20044;-61
2024/02/03 08:41:32;;;;;;;6.68;4.10;;;;;;;9.09;49.87;100648.31;5052089;28;20273;-62
2024/02/03 08:43:58;;;;;;;14.55;6.35;;;;;;;9.19;49.91;100653.66;5057658;28;20041;-61
2024/02/03 08:46:23;;;;;;;4.43;3.60;;;;;;;9.15;49.43;100649.59;5053981;28;20057;-61
2024/02/03 08:48:49;;;;;;;6.88;4.80;;;;;;;9.02;49.56;100643.69;5057914;28;20334;-61
2024/02/03 08:51:17;;;;;;;7.78;4.18;;;;;;;9.19;49.00;100643.06;5057287;28;20234;-62
2024/02/03 08:53:42;;;;;;;8.98;5.30;;;;;;;9.07;48.79;100636.19;5057625;28;20028;-62
2024/02/03 08:56:08;;;;;;;5.13;3.80;;;;;;;9.19;49.03;100629.88;5056765;28;20160;-62
2024/02/03 08:58:33;;;;;;;6.95;4.35;;;;;;;9.01;49.04;100627.00;5056771;28;20059;-61
2024/02/03 09:00:59;;;;;;;7.13;5.22;;;;;;;9.05;48.78;100638.97;5057165;28;20242;-60
2024/02/03 09:03:24;;;;;;;6.07;4.28;;;;;;;9.11;49.57;100633.16;5056551;28;20215;-62
2024/02/03 09:05:49;;;;;;;7.07;3.83;;;;;;;9.40;49.12;100628.03;5054486;28;20045;-61
2024/02/03 09:08:15;;;;;;;8.95;7.15;;;;;;;9.43;49.75;100622.50;5054027;28;20036;-61
2024/02/03 09:10:40;;;;;;;9.45;6.05;;;;;;;9.57;49.36;100622.13;5057667;28;20048;-62
2024/02/03 09:13:06;;;;;;;7.22;4.60;;;;;;;9.65;49.13;100615.31;5052296;28;20041;-61
2024/02/03 09:15:31;;;;;;;11.52;5.40;;;;;;;9.80;48.81;100617.44;5055717;28;20037;-61
2024/02/03 09:17:57;;;;;;;8.52;4.20;;;;;;;9.90;48.52;100614.81;5052704;28;20040;-61
2024/02/03 09:20:22;;;;;;;6.03;3.90;;;;;;;9.93;48.17;100617.19;5053204;28;20043;-62
2024/02/03 09:22:47;;;;;;;9.73;4.85;;;;;;;9.97;48.06;100621.25;5054828;28;20041;-62
2024/02/03 09:25:13;;;;;;;7.45;5.05;;;;;;;9.73;48.96;100607.56;5055112;28;20043;-62
2024/02/03 09:27:39;;;;;;;9.15;4.00;;;;;;;9.88;48.51;100601.75;5053875;28;20037;-61
2024/02/03 09:30:05;;;;;;;6.32;4.50;;;;;;;9.91;48.46;100609.41;5046079;28;20096;-61
2024/02/03 09:32:31;;;;;;;8.18;3.70;;;;;;;10.00;47.51;100606.91;5048505;28;20245;-61
2024/02/03 09:34:56;;;;;;;8.60;4.00;;;;;;;10.08;47.45;100599.94;5054931;28;20317;-61
2024/02/03 09:37:22;;;;;;;5.85;4.85;;;;;;;9.92;46.93;100575.84;5053106;28;20044;-61
2024/02/03 09:39:47;;;;;;;6.80;3.72;;;;;;;10.11;47.02;100582.97;5054818;28;20048;-62
2024/02/03 09:42:13;;;;;;;5.70;3.10;;;;;;;10.16;47.11;100583.38;5054034;28;20262;-63
2024/02/03 09:44:38;;;;;;;4.47;3.97;;;;;;;10.21;46.25;100579.38;5050113;28;20104;-61
2024/02/03 09:47:05;;;;;;;3.92;3.13;;;;;;;10.24;46.28;100575.63;5057066;28;20029;-60
2024/02/03 09:49:30;;;;;;;7.32;3.53;;;;;;;10.28;46.64;100569.06;5058343;28;20028;-61
2024/02/03 09:51:57;;;;;;;6.75;2.60;;;;;;;10.32;46.33;100572.25;5060767;28;20029;-61
2024/02/03 09:54:23;;;;;;;4.22;2.60;;;;;;;10.40;46.06;100567.09;5059348;28;20051;-62
2024/02/03 09:56:49;;;;;;;3.78;2.40;;;;;;;10.37;45.26;100562.94;5049057;28;20057;-62
2024/02/03 09:59:14;;;;;;;3.45;2.30;;;;;;;10.50;45.34;100554.72;5057546;28;20291;-61
2024/02/03 10:01:45;;;;;;;5.78;1.90;;;;;;;10.48;45.07;100543.44;5061049;28;20037;-61
2024/02/03 10:04:12;;;;;;;4.88;2.65;;;;;;;10.54;45.19;100538.41;5060214;28;20045;-61
2024/02/03 10:06:38;;;;;;;5.03;2.08;;;;;;;10.55;44.94;100537.44;5060625;28;20041;-61
2024/02/03 10:09:04;;;;;;;4.38;2.20;;;;;;;10.62;44.68;100531.56;5060187;28;20029;-62
2024/02/03 10:11:38;;;;;;;4.65;2.22;;;;;;;10.62;45.39;100527.09;5059735;28;20056;-62
2024/02/03 10:14:04;;;;;;;4.50;2.38;;;;;;;10.74;44.42;100535.72;5061005;28;20041;-61
2024/02/03 10:16:30;;;;;;;4.15;2.25;;;;;;;10.78;45.11;100521.19;5060163;28;20060;-60
2024/02/03 10:18:55;;;;;;;4.22;2.15;;;;;;;10.79;44.59;100518.41;5059768;28;20029;-61
2024/02/03 10:21:23;;;;;;;4.15;2.25;;;;;;;10.82;44.64;100506.69;5059942;28;20037;-62
2024/02/03 10:23:52;;;;;;;4.93;2.38;;;;;;;10.92;44.87;100511.94;5058506;28;20091;-62
2024/02/03 10:26:18;;;;;;;2.65;1.90;;;;;;;10.90;44.07;100524.50;5060240;28;20044;-63
2024/02/03 10:28:44;;;;;;;3.83;2.20;;;;;;;10.89;44.05;100521.03;5060676;28;20047;-61
2024/02/03 10:31:11;;;;;;;3.38;2.33;;;;;;;10.96;43.63;100508.03;5060936;28;20068;-61
2024/02/03 10:33:37;;;;;;;5.03;2.50;;;;;;;10.93;43.90;100506.50;5059930;28;20032;-62
2024/02/03 10:36:03;;;;;;;6.50;2.60;;;;;;;11.08;44.46;100499.75;5059471;28;20037;-61
2024/02/03 10:38:29;;;;;;;5.30;2.60;;;;;;;11.17;44.95;100492.72;5059796;28;20048;-62
2024/02/03 10:40:55;;;;;;;2.88;2.25;;;;;;;11.12;44.33;100479.91;5059839;28;20041;-62
2024/02/03 10:43:24;;;;;;;4.25;3.10;;;;;;;10.95;44.27;100475.38;5059950;28;20120;-61
2024/02/03 10:45:56;;;;;;;3.92;3.03;;;;;;;11.00;44.87;100480.25;5056295;28;20105;-61
2024/02/03 10:48:25;;;;;;;5.05;2.80;;;;;;;10.95;44.19;100485.16;5060076;28;20056;-61
2024/02/03 10:50:54;;;;;;;7.63;2.65;;;;;;;10.83;44.85;100481.88;5059757;28;20037;-62
2024/02/03 10:53:27;;;;;;;12.75;5.95;;;;;;;10.75;44.17;100473.81;5059881;28;20032;-63
2024/02/03 10:55:55;;;;;;;16.13;12.38;;;;;;;10.62;45.32;100465.34;5059547;28;20083;-63
2024/02/03 10:58:28;;;;;;;8.18;2.83;;;;;;;10.74;44.99;100467.69;5060066;28;20235;-63
2024/02/03 11:00:56;;;;;;;6.50;2.78;;;;;;;10.68;45.18;100456.81;5056594;28;20028;-61
2024/02/03 11:03:22;;;;;;;5.32;3.40;;;;;;;10.61;45.72;100448.63;5058980;28;20339;-60
2024/02/03 11:05:54;;;;;;;7.13;5.00;;;;;;;10.74;45.82;100450.94;5059295;28;20040;-63
2024/02/03 11:08:20;;;;;;;9.77;8.00;;;;;;;10.83;45.91;100450.91;5059938;28;20072;-61
2024/02/03 11:10:49;;;;;;;16.13;10.93;;;;;;;10.95;46.16;100454.19;5058731;28;20041;-61
2024/02/03 11:13:22;;;;;;;9.00;5.57;;;;;;;10.75;46.01;100453.44;5058702;28;20037;-61
2024/02/03 11:15:54;;;;;;;6.25;4.00;;;;;;;10.70;45.78;100446.91;5058826;28;20095;-61